sensor_id;sensor_type;location;lat;lon;timestamp;temperature;humidity
48744;DHT22;34538;48.836;9.174;2022-09-14T00:01:12;18.80;99.90
48744;DHT22;34538;48.836;9.174;2022-09-14T00:03:38;18.80;99.90
48744;DHT22;34538;48.836;9.174;2022-09-14T00:06:14;18.80;99.90
48744;DHT22;34538;48.836;9.174;2022-09-14T00:08:41;18.70;99.90
48744;DHT22;34538;48.836;9.174;2022-09-14T00:11:12;18.80;99.90
48744;DHT22;34538;48.836;9.174;2022-09-14T00:13:40;18.80;99.90
48744;DHT22;34538;48.836;9.174;2022-09-14T00:16:11;18.80;99.90
48744;DHT22;34538;48.836;9.174;2022-09-14T00:18:37;18.80;99.90
48744;DHT22;34538;48.836;9.174;2022-09-14T00:21:06;18.80;99.90
48744;DHT22;34538;48.836;9.174;2022-09-14T00:23:34;18.70;99.90
48744;DHT22;34538;48.836;9.174;2022-09-14T00:26:09;18.70;99.90
48744;DHT22;34538;48.836;9.174;2022-09-14T00:28:40;18.70;99.90
48744;DHT22;34538;48.836;9.174;2022-09-14T00:31:07;18.80;99.90
48744;DHT22;34538;48.836;9.174;2022-09-14T00:33:33;18.70;99.90
48744;DHT22;34538;48.836;9.174;2022-09-14T00:36:11;18.80;99.90
48744;DHT22;34538;48.836;9.174;2022-09-14T00:38:38;18.80;99.90
48744;DHT22;34538;48.836;9.174;2022-09-14T00:41:05;18.80;99.90
48744;DHT22;34538;48.836;9.174;2022-09-14T00:43:32;18.80;99.90
48744;DHT22;34538;48.836;9.174;2022-09-14T00:46:00;18.80;99.90
48744;DHT22;34538;48.836;9.174;2022-09-14T00:48:27;18.80;99.90
48744;DHT22;34538;48.836;9.174;2022-09-14T00:50:54;18.80;99.90
48744;DHT22;34538;48.836;9.174;2022-09-14T00:53:20;18.90;99.90
48744;DHT22;34538;48.836;9.174;2022-09-14T00:55:46;18.90;99.90
48744;DHT22;34538;48.836;9.174;2022-09-14T00:58:12;18.90;99.90
48744;DHT22;34538;48.836;9.174;2022-09-14T01:00:37;18.90;99.90
48744;DHT22;34538;48.836;9.174;2022-09-14T01:03:03;18.90;99.90
48744;DHT22;34538;48.836;9.174;2022-09-14T01:05:45;19.00;99.90
48744;DHT22;34538;48.836;9.174;2022-09-14T01:11:29;18.90;99.90
48744;DHT22;34538;48.836;9.174;2022-09-14T01:14:16;18.90;99.90
48744;DHT22;34538;48.836;9.174;2022-09-14T01:16:54;18.90;99.90
48744;DHT22;34538;48.836;9.174;2022-09-14T01:22:02;18.90;99.90
48744;DHT22;34538;48.836;9.174;2022-09-14T01:25:02;18.90;99.90
48744;DHT22;34538;48.836;9.174;2022-09-14T01:27:33;18.90;99.90
48744;DHT22;34538;48.836;9.174;2022-09-14T01:30:23;18.80;99.90
48744;DHT22;34538;48.836;9.174;2022-09-14T01:33:14;18.80;99.90
48744;DHT22;34538;48.836;9.174;2022-09-14T01:35:53;18.80;99.90
48744;DHT22;34538;48.836;9.174;2022-09-14T01:38:44;18.80;99.90
48744;DHT22;34538;48.836;9.174;2022-09-14T01:41:15;18.80;99.90
48744;DHT22;34538;48.836;9.174;2022-09-14T01:43:53;18.70;99.90
48744;DHT22;34538;48.836;9.174;2022-09-14T01:46:27;18.60;99.90
48744;DHT22;34538;48.836;9.174;2022-09-14T01:49:06;18.40;99.90
48744;DHT22;34538;48.836;9.174;2022-09-14T01:51:38;18.20;99.90
48744;DHT22;34538;48.836;9.174;2022-09-14T01:54:34;18.10;99.90
48744;DHT22;34538;48.836;9.174;2022-09-14T01:59:44;18.10;99.90
48744;DHT22;34538;48.836;9.174;2022-09-14T02:02:24;18.10;99.90
48744;DHT22;34538;48.836;9.174;2022-09-14T02:05:09;18.10;99.90
48744;DHT22;34538;48.836;9.174;2022-09-14T02:07:38;18.00;99.90
48744;DHT22;34538;48.836;9.174;2022-09-14T02:10:07;18.00;99.90
48744;DHT22;34538;48.836;9.174;2022-09-14T02:12:34;17.90;99.90
48744;DHT22;34538;48.836;9.174;2022-09-14T02:15:00;17.90;99.90
48744;DHT22;34538;48.836;9.174;2022-09-14T02:17:28;17.90;99.90
48744;DHT22;34538;48.836;9.174;2022-09-14T02:19:59;17.90;99.90
48744;DHT22;34538;48.836;9.174;2022-09-14T02:22:25;17.80;99.90
48744;DHT22;34538;48.836;9.174;2022-09-14T02:24:51;17.80;99.90
48744;DHT22;34538;48.836;9.174;2022-09-14T02:27:17;17.80;99.90
48744;DHT22;34538;48.836;9.174;2022-09-14T02:29:43;17.70;99.90
48744;DHT22;34538;48.836;9.174;2022-09-14T02:34:57;17.70;99.90
48744;DHT22;34538;48.836;9.174;2022-09-14T02:37:51;17.70;99.90
48744;DHT22;34538;48.836;9.174;2022-09-14T02:40:57;17.70;99.90
48744;DHT22;34538;48.836;9.174;2022-09-14T02:48:48;17.70;99.90
48744;DHT22;34538;48.836;9.174;2022-09-14T02:54:13;17.80;99.90
48744;DHT22;34538;48.836;9.174;2022-09-14T02:56:40;17.70;99.90
48744;DHT22;34538;48.836;9.174;2022-09-14T02:59:06;17.70;99.90
48744;DHT22;34538;48.836;9.174;2022-09-14T03:01:32;17.70;99.90
48744;DHT22;34538;48.836;9.174;2022-09-14T03:03:58;17.70;99.90
48744;DHT22;34538;48.836;9.174;2022-09-14T03:06:24;17.80;99.90
48744;DHT22;34538;48.836;9.174;2022-09-14T03:08:50;17.80;99.90
48744;DHT22;34538;48.836;9.174;2022-09-14T03:11:16;17.70;99.90
48744;DHT22;34538;48.836;9.174;2022-09-14T03:13:41;17.70;99.90
48744;DHT22;34538;48.836;9.174;2022-09-14T03:16:13;17.70;99.90
48744;DHT22;34538;48.836;9.174;2022-09-14T03:18:39;17.70;99.90
48744;DHT22;34538;48.836;9.174;2022-09-14T03:21:07;17.70;99.90
48744;DHT22;34538;48.836;9.174;2022-09-14T03:23:37;17.70;99.90
48744;DHT22;34538;48.836;9.174;2022-09-14T03:26:08;17.70;99.90
48744;DHT22;34538;48.836;9.174;2022-09-14T03:28:34;17.70;99.90
48744;DHT22;34538;48.836;9.174;2022-09-14T03:31:01;17.80;99.90
48744;DHT22;34538;48.836;9.174;2022-09-14T03:33:27;17.80;99.90
48744;DHT22;34538;48.836;9.174;2022-09-14T03:35:52;17.80;99.90
48744;DHT22;34538;48.836;9.174;2022-09-14T03:38:18;17.80;99.90
48744;DHT22;34538;48.836;9.174;2022-09-14T03:40:44;17.80;99.90
48744;DHT22;34538;48.836;9.174;2022-09-14T03:43:09;17.80;99.90
48744;DHT22;34538;48.836;9.174;2022-09-14T03:45:37;17.80;99.90
48744;DHT22;34538;48.836;9.174;2022-09-14T03:48:03;17.80;99.90
48744;DHT22;34538;48.836;9.174;2022-09-14T03:50:30;17.80;99.90
48744;DHT22;34538;48.836;9.174;2022-09-14T03:52:56;17.80;99.90
48744;DHT22;34538;48.836;9.174;2022-09-14T03:55:21;17.80;99.90
48744;DHT22;34538;48.836;9.174;2022-09-14T03:57:47;17.80;99.90
48744;DHT22;34538;48.836;9.174;2022-09-14T04:00:13;17.80;99.90
48744;DHT22;34538;48.836;9.174;2022-09-14T04:02:39;17.80;99.90
48744;DHT22;34538;48.836;9.174;2022-09-14T04:05:05;17.80;99.90
48744;DHT22;34538;48.836;9.174;2022-09-14T04:07:31;17.80;99.90
48744;DHT22;34538;48.836;9.174;2022-09-14T04:09:57;17.80;99.90
48744;DHT22;34538;48.836;9.174;2022-09-14T04:12:23;17.80;99.90
48744;DHT22;34538;48.836;9.174;2022-09-14T04:14:49;17.80;99.90
48744;DHT22;34538;48.836;9.174;2022-09-14T04:17:14;17.80;99.90
48744;DHT22;34538;48.836;9.174;2022-09-14T04:19:42;17.80;99.90
48744;DHT22;34538;48.836;9.174;2022-09-14T04:22:07;17.80;99.90
48744;DHT22;34538;48.836;9.174;2022-09-14T04:24:33;17.80;99.90
48744;DHT22;34538;48.836;9.174;2022-09-14T04:26:59;17.80;99.90
48744;DHT22;34538;48.836;9.174;2022-09-14T04:29:24;17.80;99.90
48744;DHT22;34538;48.836;9.174;2022-09-14T04:31:50;17.80;99.90
48744;DHT22;34538;48.836;9.174;2022-09-14T04:34:16;17.80;99.90
48744;DHT22;34538;48.836;9.174;2022-09-14T04:36:42;17.80;99.90
48744;DHT22;34538;48.836;9.174;2022-09-14T04:39:10;17.80;99.90
48744;DHT22;34538;48.836;9.174;2022-09-14T04:41:37;17.90;99.90
48744;DHT22;34538;48.836;9.174;2022-09-14T04:44:03;17.90;99.90
48744;DHT22;34538;48.836;9.174;2022-09-14T04:46:30;17.90;99.90
48744;DHT22;34538;48.836;9.174;2022-09-14T04:48:57;17.90;99.90
48744;DHT22;34538;48.836;9.174;2022-09-14T04:51:25;18.00;99.90
48744;DHT22;34538;48.836;9.174;2022-09-14T04:53:53;18.00;99.90
48744;DHT22;34538;48.836;9.174;2022-09-14T04:56:21;18.00;99.90
48744;DHT22;34538;48.836;9.174;2022-09-14T04:58:49;18.00;99.90
48744;DHT22;34538;48.836;9.174;2022-09-14T05:01:21;18.00;99.90
48744;DHT22;34538;48.836;9.174;2022-09-14T05:03:47;18.10;99.90
48744;DHT22;34538;48.836;9.174;2022-09-14T05:06:16;18.10;99.90
48744;DHT22;34538;48.836;9.174;2022-09-14T05:08:42;18.10;99.90
48744;DHT22;34538;48.836;9.174;2022-09-14T05:11:09;18.10;99.90
48744;DHT22;34538;48.836;9.174;2022-09-14T05:13:36;18.20;99.90
48744;DHT22;34538;48.836;9.174;2022-09-14T05:16:13;18.20;99.90
48744;DHT22;34538;48.836;9.174;2022-09-14T05:18:39;18.30;99.90
48744;DHT22;34538;48.836;9.174;2022-09-14T05:21:07;18.20;99.90
48744;DHT22;34538;48.836;9.174;2022-09-14T05:23:33;18.20;99.90
48744;DHT22;34538;48.836;9.174;2022-09-14T05:26:00;18.10;99.90
48744;DHT22;34538;48.836;9.174;2022-09-14T05:28:26;18.10;99.90
48744;DHT22;34538;48.836;9.174;2022-09-14T05:30:52;18.00;99.90
48744;DHT22;34538;48.836;9.174;2022-09-14T05:33:19;18.00;99.90
48744;DHT22;34538;48.836;9.174;2022-09-14T05:35:45;18.00;99.90
48744;DHT22;34538;48.836;9.174;2022-09-14T05:38:11;18.00;99.90
48744;DHT22;34538;48.836;9.174;2022-09-14T05:40:37;18.00;99.90
48744;DHT22;34538;48.836;9.174;2022-09-14T05:43:02;18.10;99.90
48744;DHT22;34538;48.836;9.174;2022-09-14T05:45:28;18.10;99.90
48744;DHT22;34538;48.836;9.174;2022-09-14T05:47:53;18.20;99.90
48744;DHT22;34538;48.836;9.174;2022-09-14T05:50:19;18.20;99.90
48744;DHT22;34538;48.836;9.174;2022-09-14T05:52:45;18.10;99.90
48744;DHT22;34538;48.836;9.174;2022-09-14T05:55:10;18.20;99.90
48744;DHT22;34538;48.836;9.174;2022-09-14T05:57:36;18.20;99.90
48744;DHT22;34538;48.836;9.174;2022-09-14T06:00:03;18.20;99.90
48744;DHT22;34538;48.836;9.174;2022-09-14T06:02:37;18.30;99.90
48744;DHT22;34538;48.836;9.174;2022-09-14T06:05:03;18.30;99.90
48744;DHT22;34538;48.836;9.174;2022-09-14T06:07:29;18.30;99.90
48744;DHT22;34538;48.836;9.174;2022-09-14T06:09:55;18.30;99.90
48744;DHT22;34538;48.836;9.174;2022-09-14T06:12:20;18.30;99.90
48744;DHT22;34538;48.836;9.174;2022-09-14T06:14:46;18.30;99.90
48744;DHT22;34538;48.836;9.174;2022-09-14T06:17:12;18.30;99.90
48744;DHT22;34538;48.836;9.174;2022-09-14T06:19:37;18.40;99.90
48744;DHT22;34538;48.836;9.174;2022-09-14T06:22:03;18.50;99.90
48744;DHT22;34538;48.836;9.174;2022-09-14T06:24:28;18.50;99.90
48744;DHT22;34538;48.836;9.174;2022-09-14T06:26:54;18.50;99.90
48744;DHT22;34538;48.836;9.174;2022-09-14T06:29:20;18.60;99.90
48744;DHT22;34538;48.836;9.174;2022-09-14T06:31:45;18.70;99.90
48744;DHT22;34538;48.836;9.174;2022-09-14T06:34:11;18.70;99.90
48744;DHT22;34538;48.836;9.174;2022-09-14T06:36:36;18.80;99.90
48744;DHT22;34538;48.836;9.174;2022-09-14T06:39:02;18.80;99.90
48744;DHT22;34538;48.836;9.174;2022-09-14T06:41:28;18.90;99.90
48744;DHT22;34538;48.836;9.174;2022-09-14T06:43:56;19.00;99.90
48744;DHT22;34538;48.836;9.174;2022-09-14T06:46:25;19.10;99.90
48744;DHT22;34538;48.836;9.174;2022-09-14T06:48:55;19.10;99.90
48744;DHT22;34538;48.836;9.174;2022-09-14T06:51:28;19.20;99.90
48744;DHT22;34538;48.836;9.174;2022-09-14T06:53:56;19.30;99.90
48744;DHT22;34538;48.836;9.174;2022-09-14T06:56:24;19.30;99.90
48744;DHT22;34538;48.836;9.174;2022-09-14T06:58:50;19.40;99.90
48744;DHT22;34538;48.836;9.174;2022-09-14T07:01:18;19.40;99.90
48744;DHT22;34538;48.836;9.174;2022-09-14T07:03:47;19.50;99.90
48744;DHT22;34538;48.836;9.174;2022-09-14T07:06:15;19.60;99.90
48744;DHT22;34538;48.836;9.174;2022-09-14T07:08:41;19.60;99.90
48744;DHT22;34538;48.836;9.174;2022-09-14T07:11:08;19.70;99.90
48744;DHT22;34538;48.836;9.174;2022-09-14T07:13:34;19.80;99.90
48744;DHT22;34538;48.836;9.174;2022-09-14T07:16:00;19.90;99.90
48744;DHT22;34538;48.836;9.174;2022-09-14T07:18:28;20.00;99.90
48744;DHT22;34538;48.836;9.174;2022-09-14T07:21:14;20.20;99.90
48744;DHT22;34538;48.836;9.174;2022-09-14T07:23:42;20.30;99.90
48744;DHT22;34538;48.836;9.174;2022-09-14T07:28:39;20.50;99.90
48744;DHT22;34538;48.836;9.174;2022-09-14T07:31:23;20.50;99.90
48744;DHT22;34538;48.836;9.174;2022-09-14T07:33:57;20.60;99.90
48744;DHT22;34538;48.836;9.174;2022-09-14T07:36:24;20.70;99.90
48744;DHT22;34538;48.836;9.174;2022-09-14T07:38:50;20.70;99.90
48744;DHT22;34538;48.836;9.174;2022-09-14T07:41:16;20.70;99.90
48744;DHT22;34538;48.836;9.174;2022-09-14T07:43:42;20.80;99.90
48744;DHT22;34538;48.836;9.174;2022-09-14T07:46:08;20.90;99.90
48744;DHT22;34538;48.836;9.174;2022-09-14T07:48:34;20.90;99.90
48744;DHT22;34538;48.836;9.174;2022-09-14T07:51:07;21.00;99.90
48744;DHT22;34538;48.836;9.174;2022-09-14T07:53:39;21.10;99.90
48744;DHT22;34538;48.836;9.174;2022-09-14T07:56:07;21.20;99.90
48744;DHT22;34538;48.836;9.174;2022-09-14T07:58:33;21.40;99.90
48744;DHT22;34538;48.836;9.174;2022-09-14T08:01:04;21.40;99.90
48744;DHT22;34538;48.836;9.174;2022-09-14T08:03:30;21.60;99.90
48744;DHT22;34538;48.836;9.174;2022-09-14T08:05:59;21.60;99.90
48744;DHT22;34538;48.836;9.174;2022-09-14T08:08:29;21.70;99.90
48744;DHT22;34538;48.836;9.174;2022-09-14T08:11:05;21.80;99.90
48744;DHT22;34538;48.836;9.174;2022-09-14T08:13:33;21.90;99.90
48744;DHT22;34538;48.836;9.174;2022-09-14T08:15:59;22.00;99.90
48744;DHT22;34538;48.836;9.174;2022-09-14T08:18:25;22.10;99.90
48744;DHT22;34538;48.836;9.174;2022-09-14T08:20:51;22.20;99.90
48744;DHT22;34538;48.836;9.174;2022-09-14T08:23:17;22.20;99.90
48744;DHT22;34538;48.836;9.174;2022-09-14T08:25:43;22.30;99.90
48744;DHT22;34538;48.836;9.174;2022-09-14T08:28:08;22.30;99.90
48744;DHT22;34538;48.836;9.174;2022-09-14T08:30:34;22.50;99.90
48744;DHT22;34538;48.836;9.174;2022-09-14T08:32:59;22.50;99.90
48744;DHT22;34538;48.836;9.174;2022-09-14T08:35:25;22.60;99.90
48744;DHT22;34538;48.836;9.174;2022-09-14T08:37:51;22.60;99.90
48744;DHT22;34538;48.836;9.174;2022-09-14T08:40:16;22.70;99.90
48744;DHT22;34538;48.836;9.174;2022-09-14T08:42:43;22.70;99.90
48744;DHT22;34538;48.836;9.174;2022-09-14T08:45:11;22.80;99.90
48744;DHT22;34538;48.836;9.174;2022-09-14T08:47:39;22.80;99.90
48744;DHT22;34538;48.836;9.174;2022-09-14T08:52:43;23.10;99.90
48744;DHT22;34538;48.836;9.174;2022-09-14T08:58:11;23.30;99.90
48744;DHT22;34538;48.836;9.174;2022-09-14T09:01:07;23.40;99.90
48744;DHT22;34538;48.836;9.174;2022-09-14T09:09:46;23.60;99.90
48744;DHT22;34538;48.836;9.174;2022-09-14T09:12:37;23.70;99.90
48744;DHT22;34538;48.836;9.174;2022-09-14T09:15:23;23.70;99.90
48744;DHT22;34538;48.836;9.174;2022-09-14T09:17:53;23.80;99.90
48744;DHT22;34538;48.836;9.174;2022-09-14T09:23:04;23.90;99.90
48744;DHT22;34538;48.836;9.174;2022-09-14T09:28:15;24.10;99.90
48744;DHT22;34538;48.836;9.174;2022-09-14T09:30:41;24.20;99.90
48744;DHT22;34538;48.836;9.174;2022-09-14T09:33:19;24.50;99.90
48744;DHT22;34538;48.836;9.174;2022-09-14T09:36:05;24.70;99.90
48744;DHT22;34538;48.836;9.174;2022-09-14T09:38:33;24.90;99.90
48744;DHT22;34538;48.836;9.174;2022-09-14T09:41:15;24.90;99.90
48744;DHT22;34538;48.836;9.174;2022-09-14T09:43:57;24.90;99.90
48744;DHT22;34538;48.836;9.174;2022-09-14T09:46:32;24.90;99.90
48744;DHT22;34538;48.836;9.174;2022-09-14T09:49:01;24.90;99.90
48744;DHT22;34538;48.836;9.174;2022-09-14T09:51:30;24.90;99.90
48744;DHT22;34538;48.836;9.174;2022-09-14T09:54:02;24.90;99.90
48744;DHT22;34538;48.836;9.174;2022-09-14T09:56:32;24.90;99.90
48744;DHT22;34538;48.836;9.174;2022-09-14T09:59:00;25.00;99.90
48744;DHT22;34538;48.836;9.174;2022-09-14T10:01:28;25.10;99.90
48744;DHT22;34538;48.836;9.174;2022-09-14T10:04:04;25.10;99.90
48744;DHT22;34538;48.836;9.174;2022-09-14T10:06:30;25.20;99.90
48744;DHT22;34538;48.836;9.174;2022-09-14T10:08:57;25.20;99.90
48744;DHT22;34538;48.836;9.174;2022-09-14T10:11:36;25.20;99.90
48744;DHT22;34538;48.836;9.174;2022-09-14T10:14:04;25.20;99.90
48744;DHT22;34538;48.836;9.174;2022-09-14T10:16:37;25.30;99.90
48744;DHT22;34538;48.836;9.174;2022-09-14T10:19:17;25.40;99.90
48744;DHT22;34538;48.836;9.174;2022-09-14T10:22:17;25.50;99.90
48744;DHT22;34538;48.836;9.174;2022-09-14T10:24:58;25.60;99.90
48744;DHT22;34538;48.836;9.174;2022-09-14T10:27:46;25.60;99.90
48744;DHT22;34538;48.836;9.174;2022-09-14T10:30:26;25.70;99.90
48744;DHT22;34538;48.836;9.174;2022-09-14T10:32:58;25.80;99.90
48744;DHT22;34538;48.836;9.174;2022-09-14T10:35:52;25.80;99.90
48744;DHT22;34538;48.836;9.174;2022-09-14T10:41:08;25.90;99.90
48744;DHT22;34538;48.836;9.174;2022-09-14T10:46:12;26.00;99.90
48744;DHT22;34538;48.836;9.174;2022-09-14T10:52:02;26.10;99.90
48744;DHT22;34538;48.836;9.174;2022-09-14T11:00:06;26.20;99.90
48744;DHT22;34538;48.836;9.174;2022-09-14T11:05:54;26.20;99.90
48744;DHT22;34538;48.836;9.174;2022-09-14T11:08:31;26.30;99.90
48744;DHT22;34538;48.836;9.174;2022-09-14T11:22:53;26.30;99.90
48744;DHT22;34538;48.836;9.174;2022-09-14T11:25:38;26.30;99.90
48744;DHT22;34538;48.836;9.174;2022-09-14T11:28:13;26.30;99.90
48744;DHT22;34538;48.836;9.174;2022-09-14T11:31:00;26.40;99.90
48744;DHT22;34538;48.836;9.174;2022-09-14T11:33:38;26.40;99.90
48744;DHT22;34538;48.836;9.174;2022-09-14T11:36:22;26.40;99.90
48744;DHT22;34538;48.836;9.174;2022-09-14T11:38:58;26.40;99.90
48744;DHT22;34538;48.836;9.174;2022-09-14T11:41:27;26.50;99.90
48744;DHT22;34538;48.836;9.174;2022-09-14T11:52:01;27.20;99.90
48744;DHT22;34538;48.836;9.174;2022-09-14T11:54:29;27.30;99.90
48744;DHT22;34538;48.836;9.174;2022-09-14T11:56:59;27.30;99.90
48744;DHT22;34538;48.836;9.174;2022-09-14T11:59:55;27.30;99.90
48744;DHT22;34538;48.836;9.174;2022-09-14T12:15:32;26.90;99.90
48744;DHT22;34538;48.836;9.174;2022-09-14T12:20:38;26.70;99.90
48744;DHT22;34538;48.836;9.174;2022-09-14T12:25:52;26.50;99.90
48744;DHT22;34538;48.836;9.174;2022-09-14T12:28:28;26.50;99.90
48744;DHT22;34538;48.836;9.174;2022-09-14T12:36:01;26.30;99.90
48744;DHT22;34538;48.836;9.174;2022-09-14T12:41:00;26.20;99.90
48744;DHT22;34538;48.836;9.174;2022-09-14T12:56:29;25.10;99.90
48744;DHT22;34538;48.836;9.174;2022-09-14T13:01:56;24.10;99.90
48744;DHT22;34538;48.836;9.174;2022-09-14T13:04:27;23.50;99.90
48744;DHT22;34538;48.836;9.174;2022-09-14T13:06:56;23.00;99.90
48744;DHT22;34538;48.836;9.174;2022-09-14T13:09:27;22.60;99.90
48744;DHT22;34538;48.836;9.174;2022-09-14T13:12:02;22.10;99.90
48744;DHT22;34538;48.836;9.174;2022-09-14T13:17:13;21.50;99.90
48744;DHT22;34538;48.836;9.174;2022-09-14T13:19:40;21.30;99.90
48744;DHT22;34538;48.836;9.174;2022-09-14T13:22:27;21.10;99.90
48744;DHT22;34538;48.836;9.174;2022-09-14T13:24:54;20.90;99.90
48744;DHT22;34538;48.836;9.174;2022-09-14T13:27:27;20.80;99.90
48744;DHT22;34538;48.836;9.174;2022-09-14T13:30:07;20.60;99.90
48744;DHT22;34538;48.836;9.174;2022-09-14T13:32:44;20.50;99.90
48744;DHT22;34538;48.836;9.174;2022-09-14T13:35:27;20.40;99.90
48744;DHT22;34538;48.836;9.174;2022-09-14T13:37:54;20.30;99.90
48744;DHT22;34538;48.836;9.174;2022-09-14T13:40:25;20.20;99.90
48744;DHT22;34538;48.836;9.174;2022-09-14T13:42:52;20.10;99.90
48744;DHT22;34538;48.836;9.174;2022-09-14T13:45:19;20.00;99.90
48744;DHT22;34538;48.836;9.174;2022-09-14T13:47:46;19.90;99.90
48744;DHT22;34538;48.836;9.174;2022-09-14T13:50:12;19.80;99.90
48744;DHT22;34538;48.836;9.174;2022-09-14T13:52:40;19.70;99.90
48744;DHT22;34538;48.836;9.174;2022-09-14T13:57:32;19.60;99.90
48744;DHT22;34538;48.836;9.174;2022-09-14T14:02:43;19.60;99.90
48744;DHT22;34538;48.836;9.174;2022-09-14T14:05:23;19.50;99.90
48744;DHT22;34538;48.836;9.174;2022-09-14T14:07:49;19.60;99.90
48744;DHT22;34538;48.836;9.174;2022-09-14T14:10:36;19.60;99.90
48744;DHT22;34538;48.836;9.174;2022-09-14T14:13:02;19.70;99.90
48744;DHT22;34538;48.836;9.174;2022-09-14T14:15:40;19.70;99.90
48744;DHT22;34538;48.836;9.174;2022-09-14T14:18:28;19.80;99.90
48744;DHT22;34538;48.836;9.174;2022-09-14T14:21:04;19.80;99.90
48744;DHT22;34538;48.836;9.174;2022-09-14T14:23:30;19.90;99.90
48744;DHT22;34538;48.836;9.174;2022-09-14T14:26:16;19.90;99.90
48744;DHT22;34538;48.836;9.174;2022-09-14T14:28:43;20.00;99.90
48744;DHT22;34538;48.836;9.174;2022-09-14T14:31:18;20.00;99.90
48744;DHT22;34538;48.836;9.174;2022-09-14T14:33:49;20.10;99.90
48744;DHT22;34538;48.836;9.174;2022-09-14T14:36:16;20.10;99.90
48744;DHT22;34538;48.836;9.174;2022-09-14T14:38:44;20.20;99.90
48744;DHT22;34538;48.836;9.174;2022-09-14T14:41:14;20.20;99.90
48744;DHT22;34538;48.836;9.174;2022-09-14T14:43:41;20.30;99.90
48744;DHT22;34538;48.836;9.174;2022-09-14T14:46:07;20.30;99.90
48744;DHT22;34538;48.836;9.174;2022-09-14T14:48:33;20.30;99.90
48744;DHT22;34538;48.836;9.174;2022-09-14T14:50:59;20.30;99.90
48744;DHT22;34538;48.836;9.174;2022-09-14T14:53:25;20.30;99.90
48744;DHT22;34538;48.836;9.174;2022-09-14T14:55:51;20.30;99.90
48744;DHT22;34538;48.836;9.174;2022-09-14T14:58:19;20.30;99.90
48744;DHT22;34538;48.836;9.174;2022-09-14T15:00:45;20.30;99.90
48744;DHT22;34538;48.836;9.174;2022-09-14T15:03:12;20.40;99.90
48744;DHT22;34538;48.836;9.174;2022-09-14T15:05:46;20.30;99.90
48744;DHT22;34538;48.836;9.174;2022-09-14T15:08:14;20.30;99.90
48744;DHT22;34538;48.836;9.174;2022-09-14T15:10:41;20.20;99.90
48744;DHT22;34538;48.836;9.174;2022-09-14T15:13:08;20.20;99.90
48744;DHT22;34538;48.836;9.174;2022-09-14T15:15:34;20.10;99.90
48744;DHT22;34538;48.836;9.174;2022-09-14T15:18:00;20.10;99.90
48744;DHT22;34538;48.836;9.174;2022-09-14T15:20:26;20.10;99.90
48744;DHT22;34538;48.836;9.174;2022-09-14T15:22:52;20.00;99.90
48744;DHT22;34538;48.836;9.174;2022-09-14T15:25:19;20.00;99.90
48744;DHT22;34538;48.836;9.174;2022-09-14T15:27:46;20.00;99.90
48744;DHT22;34538;48.836;9.174;2022-09-14T15:30:12;19.90;99.90
48744;DHT22;34538;48.836;9.174;2022-09-14T15:32:38;19.90;99.90
48744;DHT22;34538;48.836;9.174;2022-09-14T15:35:06;19.90;99.90
48744;DHT22;34538;48.836;9.174;2022-09-14T15:37:32;19.90;99.90
48744;DHT22;34538;48.836;9.174;2022-09-14T15:39:57;20.00;99.90
48744;DHT22;34538;48.836;9.174;2022-09-14T15:42:23;20.00;99.90
48744;DHT22;34538;48.836;9.174;2022-09-14T15:44:49;20.10;99.90
48744;DHT22;34538;48.836;9.174;2022-09-14T15:47:15;20.20;99.90
48744;DHT22;34538;48.836;9.174;2022-09-14T15:49:42;20.20;99.90
48744;DHT22;34538;48.836;9.174;2022-09-14T15:52:09;20.30;99.90
48744;DHT22;34538;48.836;9.174;2022-09-14T15:54:36;20.30;99.90
48744;DHT22;34538;48.836;9.174;2022-09-14T15:57:04;20.30;99.90
48744;DHT22;34538;48.836;9.174;2022-09-14T15:59:31;20.40;99.90
48744;DHT22;34538;48.836;9.174;2022-09-14T16:01:57;20.50;99.90
48744;DHT22;34538;48.836;9.174;2022-09-14T16:04:23;20.50;99.90
48744;DHT22;34538;48.836;9.174;2022-09-14T16:06:48;20.50;99.90
48744;DHT22;34538;48.836;9.174;2022-09-14T16:09:15;20.50;99.90
48744;DHT22;34538;48.836;9.174;2022-09-14T16:11:42;20.40;99.90
48744;DHT22;34538;48.836;9.174;2022-09-14T16:14:09;20.40;99.90
48744;DHT22;34538;48.836;9.174;2022-09-14T16:16:36;20.40;99.90
48744;DHT22;34538;48.836;9.174;2022-09-14T16:19:10;20.30;99.90
48744;DHT22;34538;48.836;9.174;2022-09-14T16:21:37;20.20;99.90
48744;DHT22;34538;48.836;9.174;2022-09-14T16:24:05;20.20;99.90
48744;DHT22;34538;48.836;9.174;2022-09-14T16:26:34;20.20;99.90
48744;DHT22;34538;48.836;9.174;2022-09-14T16:29:01;20.20;99.90
48744;DHT22;34538;48.836;9.174;2022-09-14T16:31:29;20.20;99.90
48744;DHT22;34538;48.836;9.174;2022-09-14T16:33:57;20.20;99.90
48744;DHT22;34538;48.836;9.174;2022-09-14T16:36:25;20.10;99.90
48744;DHT22;34538;48.836;9.174;2022-09-14T16:38:54;20.10;99.90
48744;DHT22;34538;48.836;9.174;2022-09-14T16:41:20;20.00;99.90
48744;DHT22;34538;48.836;9.174;2022-09-14T16:43:46;20.00;99.90
48744;DHT22;34538;48.836;9.174;2022-09-14T16:46:16;20.00;99.90
48744;DHT22;34538;48.836;9.174;2022-09-14T16:48:44;20.00;99.90
48744;DHT22;34538;48.836;9.174;2022-09-14T16:51:11;20.00;99.90
48744;DHT22;34538;48.836;9.174;2022-09-14T16:53:39;19.90;99.90
48744;DHT22;34538;48.836;9.174;2022-09-14T16:56:10;19.90;99.90
48744;DHT22;34538;48.836;9.174;2022-09-14T16:58:37;19.90;99.90
48744;DHT22;34538;48.836;9.174;2022-09-14T17:01:12;19.90;99.90
48744;DHT22;34538;48.836;9.174;2022-09-14T17:03:38;19.90;99.90
48744;DHT22;34538;48.836;9.174;2022-09-14T17:06:11;19.80;99.90
48744;DHT22;34538;48.836;9.174;2022-09-14T17:08:39;19.80;99.90
48744;DHT22;34538;48.836;9.174;2022-09-14T17:11:05;19.80;99.90
48744;DHT22;34538;48.836;9.174;2022-09-14T17:13:31;19.70;99.90
48744;DHT22;34538;48.836;9.174;2022-09-14T17:16:05;19.70;99.90
48744;DHT22;34538;48.836;9.174;2022-09-14T17:18:32;19.70;99.90
48744;DHT22;34538;48.836;9.174;2022-09-14T17:21:01;19.70;99.90
48744;DHT22;34538;48.836;9.174;2022-09-14T17:23:27;19.70;99.90
48744;DHT22;34538;48.836;9.174;2022-09-14T17:25:53;19.60;99.90
48744;DHT22;34538;48.836;9.174;2022-09-14T17:28:20;19.60;99.90
48744;DHT22;34538;48.836;9.174;2022-09-14T17:30:46;19.50;99.90
48744;DHT22;34538;48.836;9.174;2022-09-14T17:33:14;19.50;99.90
48744;DHT22;34538;48.836;9.174;2022-09-14T17:35:45;19.50;99.90
48744;DHT22;34538;48.836;9.174;2022-09-14T17:38:11;19.40;99.90
48744;DHT22;34538;48.836;9.174;2022-09-14T17:40:36;19.40;99.90
48744;DHT22;34538;48.836;9.174;2022-09-14T17:43:02;19.30;99.90
48744;DHT22;34538;48.836;9.174;2022-09-14T17:45:28;19.30;99.90
48744;DHT22;34538;48.836;9.174;2022-09-14T17:47:53;19.20;99.90
48744;DHT22;34538;48.836;9.174;2022-09-14T17:50:19;19.20;99.90
48744;DHT22;34538;48.836;9.174;2022-09-14T17:52:45;19.20;99.90